• Join FlightAware (Why Join?)
  • Login
  • US Flag 
11:20AM EDT


 

Airport Tracker/Info


-or-


 

Live Flight TrackerFlight Track Log ✈ N8342F ✈ 14-Aug-2014 ✈ KEQY - KLHQ

Flight Track Log - Related Links

Times and Time Zones

All times are in EDT time to prevent confusion due to time zone crossing. See the N8342F flight status page for this flight to view local times or setup timezone preferences in your user account.

Time Position Orientation Groundspeed Altitude Reporting Facility
EDT Latitude Longitude Course Direction KTS MPH feet Rate Location/Type
02:18PM 35.4842 -80.5881 327° Northwest 139 160 4,500  Level Atlanta Center
02:19PM 35.5139 -80.6122 327° Northwest 141 162 4,500  Level Atlanta Center
02:20PM 35.5436 -80.6289 335° Northwest 138 159 4,600 60 Climbing Atlanta Center
02:21PM 35.5794 -80.6453 340° North 129 148 4,700 180 Climbing Atlanta Center
02:22PM 35.5881 -80.6500 336° Northwest 132 152 4,900 600 Climbing Atlanta Center
02:22PM 35.6156 -80.6617 341° North 130 150 5,400 660 Climbing Atlanta Center
02:23PM 35.6197 -80.6639 337° Northwest 132 152 5,600 600 Climbing Atlanta Center
02:24PM 35.6514 -80.6781 340° North 118 136 6,200 600 Climbing Atlanta Center
02:25PM 35.6789 -80.6922 337° Northwest 113 130 6,800 540 Climbing Atlanta Center
02:26PM 35.7125 -80.7036 345° North 113 130 7,300 420 Climbing Atlanta Center
02:27PM 35.7422 -80.7153 342° North 113 130 7,700 480 Climbing Atlanta Center
02:28PM 35.7717 -80.7242 346° North 113 130 8,300 420 Climbing Atlanta Center
02:29PM 35.7989 -80.7333 345° North 113 130 8,600 300 Climbing Atlanta Center
02:30PM 35.8264 -80.7478 337° Northwest 113 130 9,000 360 Climbing Atlanta Center
02:31PM 35.8539 -80.7594 341° North 113 130 9,400 360 Climbing Atlanta Center
02:32PM 35.8792 -80.7736 336° Northwest 113 130 9,800 300 Climbing Atlanta Center
02:33PM 35.9067 -80.7881 337° Northwest 107 123 10,000 60 Climbing Atlanta Center
02:34PM 35.9364 -80.8047 336° Northwest 107 123 10,000  Level Atlanta Center
02:35PM 35.9703 -80.8189 341° North 113 130 10,000  Level Atlanta Center
02:36PM 36.0019 -80.8356 337° Northwest 118 136 10,000  Level Atlanta Center
02:37PM 36.0356 -80.8494 342° North 118 136 10,000  Level Atlanta Center
02:38PM 36.0714 -80.8636 342° North 129 148 10,000  Level Atlanta Center
02:39PM 36.1053 -80.8803 338° Northwest 129 148 10,000  Level Atlanta Center
02:40PM 36.1411 -80.8942 343° North 129 148 10,000  Level Atlanta Center
02:41PM 36.1747 -80.9108 338° Northwest 129 148 10,000  Level Atlanta Center
02:42PM 36.2067 -80.9356 328° Northwest 129 148 10,000  Level Atlanta Center
02:43PM 36.2386 -80.9600 328° Northwest 134 154 10,000  Level Atlanta Center
02:44PM 36.2664 -80.9819 328° Northwest 134 154 10,000  Level Atlanta Center
02:45PM 36.2983 -81.0067 328° Northwest 134 154 10,000  Level Atlanta Center
02:46PM 36.3261 -81.0364 319° Northwest 134 154 10,000  Level Atlanta Center
02:47PM 36.3539 -81.0639 321° Northwest 134 154 10,000  Level Atlanta Center
02:48PM 36.3794 -81.0886 322° Northwest 129 148 10,000  Level Atlanta Center
02:49PM 36.4031 -81.1214 312° West 124 143 10,000  Level Atlanta Center
02:50PM 36.4308 -81.1486 322° Northwest 124 143 10,000  Level Atlanta Center
02:51PM 36.4625 -81.1656 337° Northwest 124 143 10,000  Level Atlanta Center
02:52PM 36.4964 -81.1825 338° Northwest 124 143 10,000  Level Atlanta Center
02:53PM 36.5322 -81.1994 339° North 124 143 10,000  Level Atlanta Center
02:54PM 36.5681 -81.2136 342° North 129 148 10,000 -60 Level Atlanta Center
02:55PM 36.6039 -81.2278 342° North 129 148 9,900 -60 Descending Atlanta Center
02:56PM 36.6397 -81.2472 336° Northwest 129 148 9,900  Level Atlanta Center
02:57PM 36.6756 -81.2614 342° North 129 148 9,900  Level Atlanta Center
02:58PM 36.7133 -81.2758 343° North 134 154 9,900  Level Atlanta Center
02:59PM 36.7531 -81.2847 350° North 134 154 9,900  Level Atlanta Center
03:00PM 36.7969 -81.2908 354° North 134 154 9,900  Level Atlanta Center
03:01PM 36.8350 -81.3053 343° North 140 161 9,900  Level Atlanta Center
03:02PM 36.8706 -81.3169 345° North 140 161 9,900  Level Atlanta Center
03:03PM 36.9064 -81.3364 337° Northwest 140 161 9,900  Level Atlanta Center
03:05PM 36.9864 -81.3678 343° North 136 157 9,900  Level Indianapolis Center
03:06PM 37.0214 -81.3833 340° North 136 157 9,900  Level Indianapolis Center
03:07PM 37.0606 -81.4006 341° North 136 157 9,900  Level Indianapolis Center
03:08PM 37.0967 -81.4164 341° North 136 157 9,900  Level Indianapolis Center
03:09PM 37.1317 -81.4297 343° North 136 157 9,900  Level Indianapolis Center
03:10PM 37.1658 -81.4431 343° North 134 154 9,900  Level Indianapolis Center
03:11PM 37.2011 -81.4586 341° North 134 154 9,900  Level Indianapolis Center
03:12PM 37.2417 -81.4767 340° North 133 153 9,900  Level Indianapolis Center
03:13PM 37.2756 -81.4922 340° North 133 153 9,900  Level Indianapolis Center
03:14PM 37.3092 -81.5072 340° North 133 153 9,900  Level Indianapolis Center
03:15PM 37.3422 -81.5231 339° North 131 151 9,900  Level Indianapolis Center
03:16PM 37.3772 -81.5389 340° North 131 151 9,900  Level Indianapolis Center
03:17PM 37.4172 -81.5569 340° North 131 151 9,900  Level Indianapolis Center
03:18PM 37.4503 -81.5714 341° North 131 151 9,900  Level Indianapolis Center
03:19PM 37.4844 -81.5867 340° North 130 150 9,900  Level Indianapolis Center
03:20PM 37.5208 -81.6033 340° North 133 153 9,900  Level Indianapolis Center
03:21PM 37.5564 -81.6186 341° North 133 153 9,900  Level Indianapolis Center
03:22PM 37.5900 -81.6333 341° North 132 152 9,900  Level Indianapolis Center
03:23PM 37.6306 -81.6494 343° North 131 151 9,900  Level Indianapolis Center
03:24PM 37.6653 -81.6650 340° North 131 151 9,900  Level Indianapolis Center
03:26PM 37.6981 -81.6800 340° North 131 151 9,900  Level Indianapolis Center
03:26PM 37.7081 -81.6894 323° Northwest 129 148 9,900 60 Level Indianapolis Center
03:27PM 37.7303 -81.6964 346° North 129 148 10,000  Climbing Indianapolis Center
03:28PM 37.7628 -81.7106 341° North 128 147 10,000  Level Indianapolis Center
03:29PM 37.7994 -81.7281 339° North 123 142 10,000  Level Indianapolis Center
03:30PM 37.8322 -81.7417 342° North 123 142 10,000  Level Indianapolis Center
03:31PM 37.8628 -81.7556 340° North 123 142 10,000  Level Indianapolis Center
03:32PM 37.8969 -81.7708 341° North 124 143 10,000  Level Indianapolis Center
03:33PM 37.9344 -81.7928 335° Northwest 124 143 10,000  Level Indianapolis Center
03:34PM 37.9628 -81.8175 325° Northwest 124 143 10,000  Level Indianapolis Center
03:35PM 37.9931 -81.8392 331° Northwest 124 143 10,000  Level Indianapolis Center
03:36PM 38.0231 -81.8608 330° Northwest 124 143 10,000  Level Indianapolis Center
03:37PM 38.0533 -81.8817 332° Northwest 124 143 10,000  Level Indianapolis Center
03:38PM 38.0867 -81.8994 337° Northwest 138 159 10,000  Level Indianapolis Center
03:39PM 38.1344 -81.9108 349° North 134 154 10,000 -240 Level Indianapolis Center
03:40PM 38.1703 -81.9231 345° North 134 154 9,500 -840 Descending Indianapolis Center
03:41PM 38.2061 -81.9433 336° Northwest 139 160 8,300 -1,320 Descending Indianapolis Center
03:42PM 38.2253 -81.9719 310° West 134 154 7,200 -1,380 Descending Indianapolis Center
03:42PM 38.2317 -81.9744 343° North 133 153 6,900 -1,260 Descending Indianapolis Center
03:43PM 38.2636 -81.9967 331° Northwest 132 152 5,600 -1,260 Descending Indianapolis Center
03:44PM 38.2981 -82.0092 344° North 132 152 4,300 -780 Descending Indianapolis Center
03:45PM 38.3369 -82.0283 339° North 129 148 4,000 -180 Descending Indianapolis Center
03:46PM 38.3694 -82.0414 343° North 125 144 4,000  Level Indianapolis Center
03:47PM 38.4025 -82.0619 334° Northwest 126 145 4,000  Level Indianapolis Center
03:48PM 38.4347 -82.0819 334° Northwest 128 147 4,000  Level Indianapolis Center
03:49PM 38.4728 -82.0989 341° North 128 147 4,000  Level Indianapolis Center
03:50PM 38.5044 -82.1119 342° North 130 150 4,000  Level Indianapolis Center
03:51PM 38.5389 -82.1292 339° North 130 150 4,000  Level Indianapolis Center
03:52PM 38.5803 -82.1453 343° North 131 151 4,000  Level Indianapolis Center
03:53PM 38.6158 -82.1603 342° North 131 151 4,000  Level Indianapolis Center
03:55PM 38.6511 -82.1747 342° North 131 151 4,000  Level Indianapolis Center
03:56PM 38.6858 -82.1900 341° North 131 151 4,000  Level Indianapolis Center
03:57PM 38.7197 -82.2058 340° North 131 151 4,000  Level Indianapolis Center
03:58PM 38.7536 -82.2200 342° North 131 151 4,000  Level Indianapolis Center
03:59PM 38.7936 -82.2372 341° North 131 151 4,000  Level Indianapolis Center
04:00PM 38.8275 -82.2522 341° North 130 150 4,000  Level Indianapolis Center
04:01PM 38.8608 -82.2667 341° North 130 150 4,000  Level Indianapolis Center
04:02PM 38.8947 -82.2814 341° North 130 150 4,000  Level Indianapolis Center
04:03PM 38.9294 -82.2964 341° North 130 150 4,000  Level Indianapolis Center
04:04PM 38.9631 -82.3100 343° North 130 150 4,000  Level Indianapolis Center
04:05PM 39.0050 -82.3286 341° North 130 150 4,000  Level Indianapolis Center
04:06PM 39.0389 -82.3431 342° North 130 150 4,000  Level Indianapolis Center
04:07PM 39.0728 -82.3572 342° North 130 150 4,000  Level Indianapolis Center
04:08PM 39.1061 -82.3728 340° North 130 150 4,000  Level Indianapolis Center
04:09PM 39.1422 -82.3869 343° North 130 150 4,000  Level Indianapolis Center
04:10PM 39.1764 -82.4028 340° North 130 150 4,000  Level Indianapolis Center
04:11PM 39.2139 -82.4186 342° North 135 155 4,000  Level Indianapolis Center
04:12PM 39.2550 -82.4353 343° North 133 153 4,000  Level Indianapolis Center
04:13PM 39.2886 -82.4539 337° Northwest 128 147 4,000 -60 Level Indianapolis Center
04:14PM 39.3217 -82.4661 344° North 128 147 3,900  Descending Indianapolis Center
04:15PM 39.3567 -82.4817 341° North 128 147 4,000  Climbing Indianapolis Center
04:16PM 39.3903 -82.4967 341° North 128 147 4,000  Level Indianapolis Center
04:17PM 39.4239 -82.5117 341° North 128 147 4,000  Level Indianapolis Center
04:18PM 39.4642 -82.5283 342° North 128 147 4,000  Level Indianapolis Center
04:19PM 39.4947 -82.5419 341° North 126 145 4,000 -60 Level Indianapolis Center
04:20PM 39.5294 -82.5575 341° North 127 146 3,900  Descending Indianapolis Center
04:21PM 39.5369 -82.5622 334° Northwest 123 142 4,000 60 Climbing Indianapolis Center
04:21PM 39.5600 -82.5722 342° North 123 142 4,000 -60 Level Indianapolis Center
04:22PM 39.5925 -82.5875 340° North 123 142 3,900 -120 Descending Indianapolis Center